createdAt,value
2022-10-16T00:00:31.429Z,13.67
2022-10-16T00:02:58.170Z,13.62
2022-10-16T00:05:25.039Z,13.72
2022-10-16T00:07:51.737Z,13.76
2022-10-16T00:10:18.415Z,13.66
2022-10-16T00:12:45.332Z,13.63
2022-10-16T00:15:12.098Z,13.55
2022-10-16T00:17:38.728Z,13.60
2022-10-16T00:20:06.126Z,13.57
2022-10-16T00:22:33.773Z,13.56
2022-10-16T00:25:00.416Z,13.48
2022-10-16T00:27:27.102Z,13.46
2022-10-16T00:29:53.751Z,13.59
2022-10-16T00:32:21.426Z,13.53
2022-10-16T00:34:48.085Z,13.62
2022-10-16T00:37:15.024Z,13.45
2022-10-16T00:42:29.367Z,13.54
2022-10-16T00:44:58.384Z,13.51
2022-10-16T00:47:52.513Z,13.39
2022-10-16T00:50:30.895Z,13.38
2022-10-16T00:52:59.644Z,13.39
2022-10-16T00:55:28.913Z,13.47
2022-10-16T00:57:55.618Z,13.35
2022-10-16T01:00:25.564Z,13.37
2022-10-16T01:02:57.558Z,13.34
2022-10-16T01:05:31.054Z,13.33
2022-10-16T01:08:09.481Z,13.35
2022-10-16T01:10:38.412Z,13.25
2022-10-16T01:13:15.583Z,13.42
2022-10-16T01:15:57.221Z,13.30
2022-10-16T01:18:29.342Z,13.31
2022-10-16T01:21:05.072Z,13.41
2022-10-16T01:23:34.659Z,13.41
2022-10-16T01:26:29.166Z,13.41
2022-10-16T01:29:08.270Z,13.27
2022-10-16T01:31:40.442Z,13.38
2022-10-16T01:34:23.819Z,13.23
2022-10-16T01:37:05.698Z,13.34
2022-10-16T01:39:36.136Z,13.22
2022-10-16T01:42:09.492Z,13.14
2022-10-16T01:44:38.755Z,13.41
2022-10-16T01:47:08.473Z,13.31
2022-10-16T01:49:39.184Z,13.39
2022-10-16T01:52:14.147Z,13.28
2022-10-16T01:54:43.406Z,13.25
2022-10-16T01:57:12.107Z,13.28
2022-10-16T01:59:45.180Z,13.29
2022-10-16T02:02:14.025Z,13.36
2022-10-16T02:04:47.096Z,13.41
2022-10-16T02:07:14.655Z,13.40
2022-10-16T02:09:41.834Z,13.35
2022-10-16T02:12:36.510Z,13.30
2022-10-16T02:15:03.832Z,13.44
2022-10-16T02:17:30.591Z,13.37
2022-10-16T02:19:59.029Z,13.33
2022-10-16T02:22:33.719Z,13.32
2022-10-16T02:25:06.299Z,13.38
2022-10-16T02:27:40.272Z,13.28
2022-10-16T02:30:36.161Z,13.27
2022-10-16T02:33:06.097Z,13.44
2022-10-16T02:35:33.614Z,13.33
2022-10-16T02:38:00.501Z,13.18
2022-10-16T02:40:28.275Z,13.38
2022-10-16T02:42:56.167Z,13.23
2022-10-16T02:45:24.155Z,13.30
2022-10-16T02:47:50.945Z,13.19
2022-10-16T02:50:17.841Z,13.18
2022-10-16T02:52:44.529Z,13.12
2022-10-16T02:55:11.174Z,13.09
2022-10-16T02:57:38.171Z,13.31
2022-10-16T03:00:06.253Z,13.22
2022-10-16T03:02:32.943Z,13.23
2022-10-16T03:04:59.590Z,13.01
2022-10-16T03:07:26.561Z,13.09
2022-10-16T03:09:53.453Z,13.08
2022-10-16T03:12:20.047Z,13.07
2022-10-16T03:14:46.903Z,12.98
2022-10-16T03:17:14.128Z,13.02
2022-10-16T03:19:40.787Z,13.00
2022-10-16T03:22:07.406Z,12.94
2022-10-16T03:24:33.998Z,12.93
2022-10-16T03:27:01.269Z,12.88
2022-10-16T03:29:28.708Z,12.93
2022-10-16T03:31:55.332Z,12.82
2022-10-16T03:34:22.016Z,12.78
2022-10-16T03:36:48.890Z,12.81
2022-10-16T03:39:15.677Z,12.80
2022-10-16T03:41:42.239Z,12.82
2022-10-16T03:44:08.860Z,12.81
2022-10-16T03:46:35.677Z,12.76
2022-10-16T03:49:04.844Z,12.92
2022-10-16T03:51:34.035Z,12.83
2022-10-16T03:54:00.661Z,12.68
2022-10-16T03:56:27.287Z,12.76
2022-10-16T03:58:53.898Z,12.75
2022-10-16T04:01:20.592Z,12.67
2022-10-16T04:03:47.210Z,12.59
2022-10-16T04:06:13.872Z,12.71
2022-10-16T04:08:43.034Z,12.62
2022-10-16T04:11:09.642Z,12.70
2022-10-16T04:13:36.356Z,12.67
2022-10-16T04:16:03.266Z,12.81
2022-10-16T04:18:30.098Z,12.72
2022-10-16T04:20:56.714Z,12.69
2022-10-16T04:23:24.449Z,12.77
2022-10-16T04:25:51.743Z,12.70
2022-10-16T04:28:18.500Z,12.59
2022-10-16T04:30:45.250Z,12.57
2022-10-16T04:33:11.964Z,12.68
2022-10-16T04:35:38.582Z,12.71
2022-10-16T04:38:05.429Z,12.71
2022-10-16T04:40:37.308Z,12.61
2022-10-16T04:43:05.217Z,12.65
2022-10-16T04:45:31.926Z,12.72
2022-10-16T04:47:59.575Z,12.71
2022-10-16T04:50:26.709Z,12.86
2022-10-16T04:52:53.372Z,12.87
2022-10-16T04:55:20.089Z,12.84
2022-10-16T04:57:46.750Z,12.87
2022-10-16T05:00:13.965Z,12.93
2022-10-16T05:02:40.702Z,12.92
2022-10-16T05:05:07.961Z,12.91
2022-10-16T05:07:34.626Z,13.00
2022-10-16T05:10:01.357Z,12.94
2022-10-16T05:12:27.995Z,12.99
2022-10-16T05:14:59.311Z,12.88
2022-10-16T05:17:27.104Z,13.08
2022-10-16T05:19:54.100Z,12.97
2022-10-16T05:22:20.875Z,13.02
2022-10-16T05:24:47.574Z,13.02
2022-10-16T05:27:19.837Z,13.05
2022-10-16T05:29:48.005Z,13.08
2022-10-16T05:32:15.789Z,12.96
2022-10-16T05:34:42.530Z,13.01
2022-10-16T05:37:09.868Z,13.09
2022-10-16T05:39:37.901Z,13.04
2022-10-16T05:42:05.834Z,13.06
2022-10-16T05:47:04.387Z,13.09
2022-10-16T05:49:31.160Z,13.09
2022-10-16T05:51:57.831Z,13.14
2022-10-16T05:54:24.553Z,13.20
2022-10-16T05:56:51.199Z,13.32
2022-10-16T05:59:17.893Z,13.12
2022-10-16T06:01:44.984Z,13.11
2022-10-16T06:06:38.748Z,13.12
2022-10-16T06:09:05.693Z,13.26
2022-10-16T06:11:34.433Z,13.20
2022-10-16T06:14:03.724Z,13.16
2022-10-16T06:16:30.505Z,13.13
2022-10-16T06:18:57.162Z,13.23
2022-10-16T06:21:26.501Z,13.19
2022-10-16T06:23:54.054Z,13.35
2022-10-16T06:26:23.735Z,13.18
2022-10-16T06:28:51.156Z,13.28
2022-10-16T06:31:18.978Z,13.17
2022-10-16T06:33:48.014Z,13.30
2022-10-16T06:36:17.229Z,13.32
2022-10-16T06:38:44.729Z,13.39
2022-10-16T06:41:14.283Z,13.35
2022-10-16T06:43:41.085Z,13.28
2022-10-16T06:46:11.110Z,13.42
2022-10-16T06:48:38.085Z,13.57
2022-10-16T06:51:07.462Z,13.59
2022-10-16T06:53:39.960Z,13.57
2022-10-16T06:56:27.143Z,13.78
2022-10-16T06:58:55.183Z,13.75
2022-10-16T07:01:24.010Z,13.82
2022-10-16T07:03:51.404Z,13.91
2022-10-16T07:06:20.671Z,13.92
2022-10-16T07:08:48.317Z,13.99
2022-10-16T07:11:17.940Z,13.83
2022-10-16T07:13:49.325Z,13.80
2022-10-16T07:16:21.646Z,13.87
2022-10-16T07:18:50.035Z,13.95
2022-10-16T07:21:20.351Z,13.89
2022-10-16T07:23:54.707Z,13.96
2022-10-16T07:26:22.139Z,13.93
2022-10-16T07:28:49.749Z,13.91
2022-10-16T07:31:17.588Z,14.05
2022-10-16T07:33:46.165Z,13.98
2022-10-16T07:36:16.276Z,14.04
2022-10-16T07:38:43.744Z,14.02
2022-10-16T07:41:13.322Z,14.10
2022-10-16T07:43:40.548Z,14.33
2022-10-16T07:46:07.426Z,14.42
2022-10-16T07:48:35.383Z,14.52
2022-10-16T07:51:04.889Z,14.73
2022-10-16T07:53:32.738Z,14.92
2022-10-16T07:56:05.364Z,14.95
2022-10-16T07:58:33.195Z,14.70
2022-10-16T08:01:00.159Z,14.78
2022-10-16T08:03:26.867Z,14.68
2022-10-16T08:05:53.705Z,14.78
2022-10-16T08:08:21.041Z,15.08
2022-10-16T08:10:51.672Z,15.22
2022-10-16T08:13:21.801Z,15.34
2022-10-16T08:15:48.667Z,15.35
2022-10-16T08:18:16.422Z,15.44
2022-10-16T08:20:44.082Z,15.77
2022-10-16T08:23:12.950Z,15.70
2022-10-16T08:25:40.268Z,15.63
2022-10-16T08:28:08.897Z,15.70
2022-10-16T08:30:35.933Z,15.86
2022-10-16T08:33:02.841Z,16.07
2022-10-16T08:35:29.839Z,15.79
2022-10-16T08:37:56.504Z,15.74
2022-10-16T08:40:34.681Z,16.04
2022-10-16T08:43:06.752Z,16.06
2022-10-16T08:45:58.222Z,15.96
2022-10-16T08:48:34.749Z,15.70
2022-10-16T08:51:04.048Z,16.07
2022-10-16T08:53:58.706Z,16.08
2022-10-16T08:56:26.919Z,15.97
2022-10-16T08:58:58.228Z,16.30
2022-10-16T09:01:41.781Z,16.35
2022-10-16T09:04:14.408Z,16.28
2022-10-16T09:06:46.945Z,16.24
2022-10-16T09:09:39.741Z,16.51
2022-10-16T09:12:13.237Z,16.52
2022-10-16T09:14:58.956Z,16.63
2022-10-16T09:17:47.040Z,16.51
2022-10-16T09:20:26.771Z,16.54
2022-10-16T09:23:13.419Z,16.88
2022-10-16T09:25:42.201Z,16.82
2022-10-16T09:28:10.515Z,16.51
2022-10-16T09:30:38.736Z,16.85
2022-10-16T09:33:06.032Z,16.84
2022-10-16T09:35:40.348Z,16.59
2022-10-16T09:38:08.180Z,16.62
2022-10-16T09:40:36.845Z,16.63
2022-10-16T09:43:29.782Z,16.83
2022-10-16T09:46:02.894Z,16.81
2022-10-16T09:48:45.194Z,16.95
2022-10-16T09:51:21.023Z,16.81
2022-10-16T09:53:48.113Z,16.57
2022-10-16T09:56:30.358Z,16.35
2022-10-16T09:59:00.110Z,16.26
2022-10-16T10:01:40.053Z,16.35
2022-10-16T10:04:08.145Z,16.27
2022-10-16T10:06:42.304Z,16.22
2022-10-16T10:09:20.454Z,16.37
2022-10-16T10:14:34.539Z,16.36
2022-10-16T10:17:07.177Z,16.48
2022-10-16T10:20:04.476Z,16.37
2022-10-16T10:22:40.296Z,16.27
2022-10-16T10:25:13.315Z,16.60
2022-10-16T10:28:18.971Z,16.71
2022-10-16T10:30:54.611Z,16.60
2022-10-16T10:33:38.316Z,16.78
2022-10-16T10:36:11.166Z,16.67
2022-10-16T10:38:50.951Z,16.63
2022-10-16T10:42:09.995Z,16.53
2022-10-16T10:45:09.490Z,16.78
2022-10-16T10:47:39.099Z,16.89
2022-10-16T10:50:23.939Z,16.84
2022-10-16T10:52:56.690Z,16.95
2022-10-16T10:55:39.292Z,17.20
2022-10-16T10:58:15.915Z,17.05
2022-10-16T11:01:06.744Z,16.78
2022-10-16T11:03:39.268Z,17.16
2022-10-16T11:06:16.138Z,17.15
2022-10-16T11:08:49.999Z,17.06
2022-10-16T11:11:24.365Z,16.95
2022-10-16T11:13:51.031Z,17.12
2022-10-16T11:16:24.814Z,17.04
2022-10-16T11:19:04.216Z,17.17
2022-10-16T11:21:40.668Z,17.37
2022-10-16T11:24:24.608Z,17.21
2022-10-16T11:26:54.954Z,17.12
2022-10-16T11:29:28.366Z,17.12
2022-10-16T11:32:06.674Z,17.01
2022-10-16T11:34:39.852Z,17.02
2022-10-16T11:37:21.550Z,17.12
2022-10-16T11:39:49.634Z,17.14
2022-10-16T11:42:25.884Z,17.18
2022-10-16T11:45:13.234Z,17.23
2022-10-16T11:48:26.928Z,17.15
2022-10-16T11:51:10.292Z,16.90
2022-10-16T11:54:35.446Z,16.82
2022-10-16T11:57:12.573Z,17.05
2022-10-16T12:00:08.185Z,17.00
2022-10-16T12:02:55.150Z,16.93
2022-10-16T12:05:32.369Z,16.96
2022-10-16T12:08:13.560Z,16.94
2022-10-16T12:10:42.793Z,16.92
2022-10-16T12:13:31.533Z,17.19
2022-10-16T12:16:13.297Z,17.04
2022-10-16T12:18:42.180Z,17.20
2022-10-16T12:21:09.845Z,17.14
2022-10-16T12:23:49.872Z,17.11
2022-10-16T12:26:25.793Z,17.29
2022-10-16T12:28:55.201Z,17.07
2022-10-16T12:31:23.160Z,16.95
2022-10-16T12:34:00.642Z,17.19
2022-10-16T12:36:43.842Z,16.99
2022-10-16T14:44:45.359Z,16.52
2022-10-16T15:27:03.644Z,15.58
2022-10-16T21:27:38.801Z,11.46
2022-10-16T23:53:22.228Z,10.77
